Time;durP1;ratioP1;P1;durP2;ratioP2;P2;SDS_P1;SDS_P2;PMS_P1;PMS_P2;Temp;Humidity;BMP_temperature;BMP_pressure;BME280_temperature;BME280_humidity;BME280_pressure;Samples;Min_cycle;Max_cycle;Signal;HPM_P1;HPM_P2
2023/12/06 00:01:40;;;;;;;;;;;3.30;85.20;;;;;;4998795;28;88325;-47
2023/12/06 00:04:05;;;;;;;;;;;3.30;85.10;;;;;;4999706;28;87033;-46
2023/12/06 00:06:31;;;;;;;;;;;3.30;85.10;;;;;;5000815;28;86951;-46
2023/12/06 00:08:56;;;;;;;;;;;3.30;84.80;;;;;;4997458;28;86998;-47
2023/12/06 00:11:22;;;;;;;;;;;3.30;85.00;;;;;;4999002;28;88125;-45
2023/12/06 00:13:47;;;;;;;;;;;3.30;85.10;;;;;;5003121;28;88655;-46
2023/12/06 00:16:13;;;;;;;;;;;3.30;84.90;;;;;;4996714;28;86398;-46
2023/12/06 00:18:41;;;;;;;;;;;3.30;85.00;;;;;;4999691;28;87000;-46
2023/12/06 00:21:07;;;;;;;;;;;3.30;85.10;;;;;;4996495;28;88818;-47
2023/12/06 00:23:32;;;;;;;;;;;3.30;85.10;;;;;;4994690;28;88860;-46
2023/12/06 00:25:58;;;;;;;;;;;3.30;85.00;;;;;;4997302;28;87752;-45
2023/12/06 00:28:24;;;;;;;;;;;3.30;85.00;;;;;;5000570;28;86941;-47
2023/12/06 00:30:49;;;;;;;;;;;3.30;84.90;;;;;;5003507;28;86906;-46
2023/12/06 00:33:15;;;;;;;;;;;3.30;85.00;;;;;;4994870;28;87302;-45
2023/12/06 00:35:40;;;;;;;;;;;3.30;85.20;;;;;;5003010;28;87163;-46
2023/12/06 00:38:06;;;;;;;;;;;3.30;84.90;;;;;;4997348;28;87107;-45
2023/12/06 00:40:31;;;;;;;;;;;3.30;84.90;;;;;;4995723;28;86793;-46
2023/12/06 00:42:57;;;;;;;;;;;3.30;84.90;;;;;;5000270;28;87053;-45
2023/12/06 00:45:22;;;;;;;;;;;3.30;85.00;;;;;;4995698;28;87014;-47
2023/12/06 00:47:48;;;;;;;;;;;3.30;85.70;;;;;;4994308;28;88528;-45
2023/12/06 00:50:14;;;;;;;;;;;3.30;85.40;;;;;;5000013;28;86980;-46
2023/12/06 00:52:39;;;;;;;;;;;3.30;85.10;;;;;;5004064;28;88430;-46
2023/12/06 00:55:05;;;;;;;;;;;3.30;85.00;;;;;;4999488;28;87039;-47
2023/12/06 00:57:30;;;;;;;;;;;3.30;85.10;;;;;;5001413;28;87978;-47
2023/12/06 00:59:56;;;;;;;;;;;3.30;85.60;;;;;;4999298;28;87452;-47
2023/12/06 01:02:22;;;;;;;;;;;3.30;85.40;;;;;;4995932;28;87104;-47
2023/12/06 01:04:50;;;;;;;;;;;3.30;85.00;;;;;;4999615;28;86803;-45
2023/12/06 01:07:18;;;;;;;;;;;3.30;85.30;;;;;;4994733;28;87641;-46
2023/12/06 01:09:44;;;;;;;;;;;3.30;85.40;;;;;;4999987;28;87160;-46
2023/12/06 01:12:10;;;;;;;;;;;3.30;85.20;;;;;;4995847;28;88411;-46
2023/12/06 01:14:36;;;;;;;;;;;3.30;84.90;;;;;;5002283;28;87105;-46
2023/12/06 01:17:01;;;;;;;;;;;3.20;85.20;;;;;;4997006;28;88477;-46
2023/12/06 01:19:27;;;;;;;;;;;3.20;84.80;;;;;;4997684;28;88786;-45
2023/12/06 01:21:53;;;;;;;;;;;3.30;85.20;;;;;;4995252;28;87152;-45
2023/12/06 01:24:18;;;;;;;;;;;3.20;85.00;;;;;;5001136;28;87389;-47
2023/12/06 01:26:44;;;;;;;;;;;3.30;85.30;;;;;;4997018;28;88677;-45
2023/12/06 01:29:09;;;;;;;;;;;3.30;85.00;;;;;;4997532;28;86793;-46
2023/12/06 01:31:35;;;;;;;;;;;3.30;85.10;;;;;;5001118;28;87163;-47
2023/12/06 01:34:00;;;;;;;;;;;3.30;85.10;;;;;;4998548;28;86973;-46
2023/12/06 01:36:26;;;;;;;;;;;3.20;85.00;;;;;;4997839;28;88115;-46
2023/12/06 01:38:52;;;;;;;;;;;3.20;85.20;;;;;;4998322;28;87292;-46
2023/12/06 01:41:17;;;;;;;;;;;3.30;85.40;;;;;;4998295;28;86894;-46
2023/12/06 01:43:43;;;;;;;;;;;3.30;85.00;;;;;;4998339;28;87145;-45
2023/12/06 01:46:09;;;;;;;;;;;3.30;85.10;;;;;;5000371;28;88718;-46
2023/12/06 01:48:36;;;;;;;;;;;3.20;85.00;;;;;;5001411;28;87112;-46
2023/12/06 01:51:02;;;;;;;;;;;3.20;85.00;;;;;;4997565;28;86984;-46
2023/12/06 01:53:27;;;;;;;;;;;3.20;85.10;;;;;;5004234;28;87790;-45
2023/12/06 01:55:53;;;;;;;;;;;3.20;85.10;;;;;;5003214;28;87234;-47
2023/12/06 01:58:18;;;;;;;;;;;3.20;84.90;;;;;;4997558;28;87367;-46
2023/12/06 02:00:44;;;;;;;;;;;3.30;84.90;;;;;;4998744;28;88506;-46
2023/12/06 02:03:11;;;;;;;;;;;3.20;85.10;;;;;;4994905;28;88035;-46
2023/12/06 02:05:36;;;;;;;;;;;3.20;85.10;;;;;;4997806;28;87551;-46
2023/12/06 02:08:04;;;;;;;;;;;3.30;84.90;;;;;;4994211;28;87059;-46
2023/12/06 02:10:29;;;;;;;;;;;3.20;84.90;;;;;;5001735;28;86998;-47
2023/12/06 02:12:55;;;;;;;;;;;3.30;85.00;;;;;;4997441;28;87444;-46
2023/12/06 02:15:21;;;;;;;;;;;3.30;85.10;;;;;;4995299;28;86884;-45
2023/12/06 02:17:48;;;;;;;;;;;3.30;85.00;;;;;;4999716;28;86910;-47
2023/12/06 02:20:14;;;;;;;;;;;3.30;84.80;;;;;;5001930;28;87035;-46
2023/12/06 02:22:39;;;;;;;;;;;3.30;85.00;;;;;;4997902;28;87019;-46
2023/12/06 02:25:10;;;;;;;;;;;3.20;85.20;;;;;;4993878;28;89153;-47
2023/12/06 02:27:35;;;;;;;;;;;3.20;84.90;;;;;;5000488;28;87054;-46
2023/12/06 02:30:01;;;;;;;;;;;3.20;85.00;;;;;;4996203;28;86972;-46
2023/12/06 02:32:27;;;;;;;;;;;3.20;84.90;;;;;;4996216;28;88406;-46
2023/12/06 02:34:54;;;;;;;;;;;3.20;85.30;;;;;;4998851;28;87228;-46
2023/12/06 02:37:20;;;;;;;;;;;3.20;85.20;;;;;;4998684;28;87045;-45
2023/12/06 02:39:47;;;;;;;;;;;3.20;84.90;;;;;;4999555;28;86974;-46
2023/12/06 02:42:12;;;;;;;;;;;3.20;85.00;;;;;;4997397;28;86714;-45
2023/12/06 02:44:38;;;;;;;;;;;3.20;85.00;;;;;;4995281;28;88441;-46
2023/12/06 02:47:04;;;;;;;;;;;3.20;85.20;;;;;;4993373;28;87623;-46
2023/12/06 02:49:30;;;;;;;;;;;3.20;85.10;;;;;;5000198;28;89612;-46
2023/12/06 02:51:55;;;;;;;;;;;3.20;85.30;;;;;;4993656;28;87573;-46
2023/12/06 02:54:21;;;;;;;;;;;3.20;85.00;;;;;;4995282;28;86957;-46
2023/12/06 02:56:46;;;;;;;;;;;3.20;85.00;;;;;;4996128;28;87332;-47
2023/12/06 02:59:12;;;;;;;;;;;3.20;85.00;;;;;;4986897;27;87424;-46
2023/12/06 03:01:37;;;;;;;;;;;3.20;85.30;;;;;;4998513;28;86946;-46
2023/12/06 03:04:05;;;;;;;;;;;3.20;85.00;;;;;;4997989;28;87500;-46
2023/12/06 03:06:30;;;;;;;;;;;3.20;85.00;;;;;;5001560;28;86489;-46
2023/12/06 03:08:56;;;;;;;;;;;3.20;85.20;;;;;;5000960;28;87018;-46
2023/12/06 03:11:22;;;;;;;;;;;3.20;85.30;;;;;;4993948;28;87367;-46
2023/12/06 03:13:47;;;;;;;;;;;3.20;85.40;;;;;;4999733;28;88060;-47
2023/12/06 03:16:13;;;;;;;;;;;3.20;85.30;;;;;;4998211;28;87671;-47
2023/12/06 03:18:38;;;;;;;;;;;3.20;85.20;;;;;;5002905;28;88478;-46
2023/12/06 03:21:04;;;;;;;;;;;3.20;85.20;;;;;;4997126;28;86847;-46
2023/12/06 03:23:29;;;;;;;;;;;3.20;85.10;;;;;;4999612;28;87017;-46
2023/12/06 03:25:55;;;;;;;;;;;3.20;85.20;;;;;;4999337;28;86889;-47
2023/12/06 03:28:20;;;;;;;;;;;3.20;85.10;;;;;;4997456;28;86981;-47
2023/12/06 03:30:46;;;;;;;;;;;3.20;85.10;;;;;;5000699;28;86753;-46
2023/12/06 03:33:11;;;;;;;;;;;3.20;85.10;;;;;;5000276;28;87814;-45
2023/12/06 03:35:37;;;;;;;;;;;3.20;85.10;;;;;;5000503;28;87025;-47
2023/12/06 03:38:02;;;;;;;;;;;3.20;85.30;;;;;;4996525;28;88492;-46
2023/12/06 03:40:28;;;;;;;;;;;3.20;85.10;;;;;;5006018;28;87070;-48
2023/12/06 03:42:54;;;;;;;;;;;3.20;85.00;;;;;;4997267;28;87587;-46
2023/12/06 03:45:19;;;;;;;;;;;3.20;85.00;;;;;;4999809;28;87301;-47
2023/12/06 03:47:45;;;;;;;;;;;3.20;85.30;;;;;;4999050;28;86959;-47
2023/12/06 03:50:10;;;;;;;;;;;3.20;85.10;;;;;;5002516;28;88404;-46
2023/12/06 03:52:36;;;;;;;;;;;3.20;85.30;;;;;;4994701;28;87822;-45
2023/12/06 03:55:02;;;;;;;;;;;3.20;85.30;;;;;;5000445;28;86760;-47
2023/12/06 03:57:29;;;;;;;;;;;3.20;85.00;;;;;;5001715;28;87519;-46
2023/12/06 03:59:54;;;;;;;;;;;3.20;85.10;;;;;;4999744;28;87695;-46
2023/12/06 04:02:20;;;;;;;;;;;3.20;85.20;;;;;;5008406;28;87903;-46
2023/12/06 04:04:45;;;;;;;;;;;3.20;85.10;;;;;;4995143;28;86986;-46
2023/12/06 04:07:11;;;;;;;;;;;3.20;85.20;;;;;;5000217;28;87017;-45
2023/12/06 04:09:37;;;;;;;;;;;3.20;85.10;;;;;;4999091;28;87463;-48
2023/12/06 04:12:04;;;;;;;;;;;3.20;85.00;;;;;;4999739;28;87053;-46
2023/12/06 04:14:30;;;;;;;;;;;3.20;85.10;;;;;;4998834;28;87886;-46
2023/12/06 04:16:56;;;;;;;;;;;3.20;85.10;;;;;;4995691;28;87417;-47
2023/12/06 04:19:21;;;;;;;;;;;3.20;85.10;;;;;;4996288;28;86250;-46
2023/12/06 04:21:47;;;;;;;;;;;3.20;85.30;;;;;;4999396;28;87206;-46
2023/12/06 04:24:12;;;;;;;;;;;3.20;85.10;;;;;;5001907;28;87432;-47
2023/12/06 04:26:38;;;;;;;;;;;3.10;84.90;;;;;;4996401;28;88247;-48
2023/12/06 04:29:03;;;;;;;;;;;3.20;85.20;;;;;;5000270;28;88472;-48
2023/12/06 04:31:29;;;;;;;;;;;3.20;85.70;;;;;;4997268;28;87080;-46
2023/12/06 04:33:54;;;;;;;;;;;3.10;85.30;;;;;;5001136;28;87038;-48
2023/12/06 04:36:21;;;;;;;;;;;3.20;85.20;;;;;;4995241;28;87611;-47
2023/12/06 04:38:46;;;;;;;;;;;3.20;85.20;;;;;;5006422;28;87029;-46
2023/12/06 04:41:12;;;;;;;;;;;3.20;85.20;;;;;;4996302;28;87071;-48
2023/12/06 04:43:38;;;;;;;;;;;3.20;85.30;;;;;;5001201;28;86687;-49
2023/12/06 04:46:03;;;;;;;;;;;3.20;85.20;;;;;;4998916;28;87610;-47
2023/12/06 04:48:29;;;;;;;;;;;3.20;85.30;;;;;;4998863;28;88289;-47
2023/12/06 04:50:54;;;;;;;;;;;3.20;85.40;;;;;;4998972;28;87931;-47
2023/12/06 04:53:20;;;;;;;;;;;3.20;85.20;;;;;;5002340;28;87764;-48
2023/12/06 04:55:45;;;;;;;;;;;3.20;85.10;;;;;;4997341;28;87553;-47
2023/12/06 04:58:11;;;;;;;;;;;3.10;85.00;;;;;;4997589;28;86986;-46
2023/12/06 05:00:37;;;;;;;;;;;3.10;85.20;;;;;;4997012;28;87892;-46
2023/12/06 05:03:02;;;;;;;;;;;3.20;85.60;;;;;;4995431;28;88606;-49
2023/12/06 05:05:28;;;;;;;;;;;3.10;85.10;;;;;;4999158;28;87064;-47
2023/12/06 05:07:57;;;;;;;;;;;3.10;84.90;;;;;;4999143;28;88029;-47
2023/12/06 05:10:22;;;;;;;;;;;3.10;85.00;;;;;;4995181;28;87006;-48
2023/12/06 05:12:48;;;;;;;;;;;3.20;85.00;;;;;;4995489;28;87082;-47
2023/12/06 05:15:13;;;;;;;;;;;3.20;85.00;;;;;;4997148;28;88162;-46
2023/12/06 05:17:39;;;;;;;;;;;3.20;85.40;;;;;;4999790;28;87001;-46
2023/12/06 05:20:06;;;;;;;;;;;3.10;85.20;;;;;;5026855;28;86995;-47
2023/12/06 05:22:32;;;;;;;;;;;3.10;85.10;;;;;;4997474;28;87979;-47
2023/12/06 05:24:57;;;;;;;;;;;3.10;85.40;;;;;;4999556;28;86941;-47
2023/12/06 05:27:23;;;;;;;;;;;3.10;85.10;;;;;;5002392;28;86992;-47
2023/12/06 05:29:48;;;;;;;;;;;3.10;85.60;;;;;;4995235;28;87053;-46
2023/12/06 05:32:14;;;;;;;;;;;3.10;85.30;;;;;;4998290;28;87040;-48
2023/12/06 05:34:39;;;;;;;;;;;3.10;85.20;;;;;;4997317;28;87375;-47
2023/12/06 05:37:05;;;;;;;;;;;3.10;85.30;;;;;;4998040;28;86979;-47
2023/12/06 05:39:31;;;;;;;;;;;3.10;85.20;;;;;;4999441;28;89306;-45
2023/12/06 05:41:56;;;;;;;;;;;3.10;85.50;;;;;;4996231;28;87751;-46
2023/12/06 05:44:22;;;;;;;;;;;3.10;85.40;;;;;;4996065;28;86940;-46
2023/12/06 05:46:48;;;;;;;;;;;3.10;85.50;;;;;;4996345;28;87986;-47
2023/12/06 05:49:13;;;;;;;;;;;3.10;85.20;;;;;;5000112;28;88591;-46
2023/12/06 05:51:39;;;;;;;;;;;3.10;85.30;;;;;;4997528;28;86897;-47
2023/12/06 05:54:04;;;;;;;;;;;3.10;85.10;;;;;;4989573;28;87671;-47
2023/12/06 05:56:30;;;;;;;;;;;3.10;85.10;;;;;;5000502;28;86288;-46
2023/12/06 05:58:55;;;;;;;;;;;3.10;85.10;;;;;;5003429;28;87211;-46
2023/12/06 06:01:21;;;;;;;;;;;3.10;85.40;;;;;;4996689;28;87578;-47
2023/12/06 06:03:46;;;;;;;;;;;3.10;85.00;;;;;;4993628;28;89999;-46
2023/12/06 06:06:12;;;;;;;;;;;3.10;85.20;;;;;;4996636;28;88213;-46
2023/12/06 06:08:38;;;;;;;;;;;3.10;85.10;;;;;;4995570;28;87483;-45
2023/12/06 06:11:04;;;;;;;;;;;3.10;85.10;;;;;;5000339;28;87139;-47
2023/12/06 06:13:30;;;;;;;;;;;3.10;85.40;;;;;;4997262;28;87462;-47
2023/12/06 06:15:56;;;;;;;;;;;3.10;85.30;;;;;;4994304;28;87113;-46
2023/12/06 06:18:22;;;;;;;;;;;3.10;85.50;;;;;;4995287;28;87879;-47
2023/12/06 06:20:48;;;;;;;;;;;3.10;85.10;;;;;;4995387;28;86063;-48
2023/12/06 06:23:13;;;;;;;;;;;3.10;85.50;;;;;;4996953;28;86996;-46
2023/12/06 06:25:39;;;;;;;;;;;3.10;85.20;;;;;;4996684;28;88160;-46
2023/12/06 06:28:05;;;;;;;;;;;3.10;85.60;;;;;;4995398;28;88692;-47
2023/12/06 06:30:30;;;;;;;;;;;3.10;85.10;;;;;;4993697;28;88454;-47
2023/12/06 06:32:57;;;;;;;;;;;3.10;85.40;;;;;;4999917;28;86986;-46
2023/12/06 06:35:22;;;;;;;;;;;3.10;85.20;;;;;;4996854;28;87744;-46
2023/12/06 06:37:48;;;;;;;;;;;3.10;85.30;;;;;;4997033;28;87000;-47
2023/12/06 06:40:14;;;;;;;;;;;3.10;85.90;;;;;;4996700;28;86999;-47
2023/12/06 06:42:40;;;;;;;;;;;3.20;85.30;;;;;;5001647;28;86865;-47
2023/12/06 06:45:06;;;;;;;;;;;3.10;85.40;;;;;;4998836;28;87858;-47
2023/12/06 06:47:32;;;;;;;;;;;3.10;85.20;;;;;;4998662;28;89035;-46
2023/12/06 06:49:58;;;;;;;;;;;3.10;85.50;;;;;;4998231;28;87169;-47
2023/12/06 06:52:23;;;;;;;;;;;3.10;85.90;;;;;;5001898;28;88028;-46
2023/12/06 06:54:49;;;;;;;;;;;3.10;85.30;;;;;;5002379;28;87531;-47
2023/12/06 06:57:14;;;;;;;;;;;3.10;85.40;;;;;;4998110;28;87037;-48
2023/12/06 06:59:40;;;;;;;;;;;3.20;85.40;;;;;;4997012;28;87555;-47
2023/12/06 07:02:05;;;;;;;;;;;3.10;85.20;;;;;;5001688;28;86987;-45
2023/12/06 07:04:32;;;;;;;;;;;3.10;85.30;;;;;;4997648;28;87627;-46
2023/12/06 07:06:58;;;;;;;;;;;3.10;85.10;;;;;;4995078;28;88708;-46
2023/12/06 07:09:24;;;;;;;;;;;3.20;85.20;;;;;;4997505;28;86179;-47
2023/12/06 07:11:49;;;;;;;;;;;3.10;85.10;;;;;;5001700;28;87073;-48
2023/12/06 07:14:15;;;;;;;;;;;3.10;85.20;;;;;;5000596;28;87120;-47
2023/12/06 07:16:40;;;;;;;;;;;3.10;85.20;;;;;;4997724;28;87945;-46
2023/12/06 07:19:06;;;;;;;;;;;3.10;85.30;;;;;;4999171;28;87442;-47
2023/12/06 07:21:31;;;;;;;;;;;3.10;85.40;;;;;;5002511;28;87047;-47
2023/12/06 07:23:57;;;;;;;;;;;3.20;85.20;;;;;;5000209;28;87132;-46
2023/12/06 07:26:22;;;;;;;;;;;3.20;85.40;;;;;;4997626;28;87591;-47
2023/12/06 07:28:48;;;;;;;;;;;3.10;85.20;;;;;;5006564;28;86976;-46
2023/12/06 07:31:14;;;;;;;;;;;3.10;85.10;;;;;;5000067;28;88978;-46
2023/12/06 07:33:39;;;;;;;;;;;3.10;85.10;;;;;;4998862;28;86441;-46
2023/12/06 07:36:06;;;;;;;;;;;3.10;85.40;;;;;;5004128;28;86981;-46
2023/12/06 07:38:31;;;;;;;;;;;3.20;85.40;;;;;;5003130;28;87274;-46
2023/12/06 07:40:57;;;;;;;;;;;3.10;85.20;;;;;;5001087;28;87965;-47
2023/12/06 07:43:23;;;;;;;;;;;3.10;85.30;;;;;;5000977;28;87689;-46
2023/12/06 07:45:48;;;;;;;;;;;3.20;85.20;;;;;;4996495;28;87398;-47
2023/12/06 07:48:14;;;;;;;;;;;3.20;85.20;;;;;;4997253;28;87169;-47
2023/12/06 07:50:40;;;;;;;;;;;3.20;85.70;;;;;;4997442;28;87953;-47
2023/12/06 07:53:06;;;;;;;;;;;3.20;85.40;;;;;;4997730;28;88699;-46
2023/12/06 07:55:32;;;;;;;;;;;3.20;85.10;;;;;;4997174;28;86949;-46
2023/12/06 07:57:58;;;;;;;;;;;3.20;85.30;;;;;;5003067;28;88276;-46
2023/12/06 08:00:25;;;;;;;;;;;3.20;86.10;;;;;;4997287;28;86973;-47
2023/12/06 08:02:50;;;;;;;;;;;3.10;85.10;;;;;;4998166;28;88301;-47
2023/12/06 08:05:19;;;;;;;;;;;3.10;85.30;;;;;;4995117;28;89685;-46
2023/12/06 08:07:44;;;;;;;;;;;3.20;85.60;;;;;;5002089;28;87256;-46
2023/12/06 08:10:12;;;;;;;;;;;3.20;85.10;;;;;;4998917;28;87938;-46
2023/12/06 08:12:38;;;;;;;;;;;3.20;85.50;;;;;;4995623;28;88459;-46
2023/12/06 08:15:04;;;;;;;;;;;3.20;85.10;;;;;;4993630;28;86974;-46
2023/12/06 08:17:30;;;;;;;;;;;3.20;85.10;;;;;;5002307;28;86910;-46
2023/12/06 08:19:55;;;;;;;;;;;3.10;85.40;;;;;;5003904;28;88729;-46
2023/12/06 08:22:21;;;;;;;;;;;3.20;85.20;;;;;;5002725;28;86285;-47
2023/12/06 08:24:46;;;;;;;;;;;3.20;85.20;;;;;;5000101;28;87259;-46
2023/12/06 08:27:12;;;;;;;;;;;3.20;84.80;;;;;;4998451;28;87068;-46
2023/12/06 08:29:38;;;;;;;;;;;3.10;85.40;;;;;;4996535;28;87928;-46
2023/12/06 08:32:04;;;;;;;;;;;3.10;85.00;;;;;;5001789;28;87675;-47
2023/12/06 08:34:29;;;;;;;;;;;3.10;85.40;;;;;;5001222;28;87509;-47
2023/12/06 08:36:55;;;;;;;;;;;3.20;85.40;;;;;;4998865;28;87269;-46
2023/12/06 08:39:21;;;;;;;;;;;3.20;85.40;;;;;;4998570;28;88811;-48
2023/12/06 08:41:46;;;;;;;;;;;3.20;85.40;;;;;;5003348;28;87003;-47
2023/12/06 08:44:12;;;;;;;;;;;3.20;85.00;;;;;;4998845;28;86904;-45
2023/12/06 08:46:37;;;;;;;;;;;3.20;85.10;;;;;;4998841;28;86331;-48
2023/12/06 08:49:03;;;;;;;;;;;3.20;85.30;;;;;;4996647;28;87082;-47
2023/12/06 08:51:28;;;;;;;;;;;3.20;85.20;;;;;;5002357;28;88526;-48
2023/12/06 08:53:54;;;;;;;;;;;3.20;85.40;;;;;;4996407;28;87778;-46
2023/12/06 08:56:19;;;;;;;;;;;3.20;85.10;;;;;;4997500;28;88158;-48
2023/12/06 08:58:45;;;;;;;;;;;3.20;85.40;;;;;;4995024;28;87445;-46
2023/12/06 09:01:11;;;;;;;;;;;3.20;85.40;;;;;;4995014;28;86995;-47
2023/12/06 09:03:36;;;;;;;;;;;3.20;85.20;;;;;;5002552;28;87844;-47
2023/12/06 09:06:02;;;;;;;;;;;3.20;85.40;;;;;;4998480;28;87035;-46
2023/12/06 09:08:27;;;;;;;;;;;3.20;85.60;;;;;;4994609;28;88338;-47
2023/12/06 09:10:53;;;;;;;;;;;3.20;85.40;;;;;;4998677;28;86841;-46
2023/12/06 09:13:19;;;;;;;;;;;3.20;85.00;;;;;;4999121;28;87077;-47
2023/12/06 09:15:44;;;;;;;;;;;3.20;85.60;;;;;;4996384;28;86955;-46
2023/12/06 09:18:10;;;;;;;;;;;3.20;85.40;;;;;;4993880;28;88435;-46
2023/12/06 09:20:35;;;;;;;;;;;3.20;85.30;;;;;;4995470;28;86993;-47
2023/12/06 09:23:01;;;;;;;;;;;3.30;85.50;;;;;;5003881;28;87733;-46
2023/12/06 09:25:27;;;;;;;;;;;3.30;85.60;;;;;;4992692;28;88498;-46
2023/12/06 09:27:52;;;;;;;;;;;3.30;85.40;;;;;;4999207;28;86867;-47
2023/12/06 09:30:18;;;;;;;;;;;3.20;85.40;;;;;;4999975;28;87556;-46
2023/12/06 09:32:45;;;;;;;;;;;3.30;85.60;;;;;;4997098;28;87250;-47
2023/12/06 09:35:10;;;;;;;;;;;3.20;85.40;;;;;;4998122;28;87716;-47
2023/12/06 09:37:36;;;;;;;;;;;3.20;85.60;;;;;;4998389;28;86870;-46
2023/12/06 09:40:02;;;;;;;;;;;3.30;85.50;;;;;;5001179;28;87116;-46
2023/12/06 09:42:29;;;;;;;;;;;3.20;85.30;;;;;;4991031;28;87952;-46
2023/12/06 09:44:58;;;;;;;;;;;3.20;85.80;;;;;;4996289;28;87462;-46
2023/12/06 09:47:23;;;;;;;;;;;3.20;85.40;;;;;;4996700;28;87952;-46
2023/12/06 09:49:49;;;;;;;;;;;3.20;85.60;;;;;;4998653;28;87649;-46
2023/12/06 09:52:24;;;;;;;;;;;3.20;85.40;;;;;;4994960;28;87033;-47
2023/12/06 09:54:50;;;;;;;;;;;3.20;85.70;;;;;;4995753;28;88014;-46
2023/12/06 09:57:16;;;;;;;;;;;3.20;85.80;;;;;;4995284;28;86587;-48
2023/12/06 09:59:42;;;;;;;;;;;3.20;85.60;;;;;;4997073;28;86228;-46
2023/12/06 10:02:08;;;;;;;;;;;3.20;85.80;;;;;;4994285;28;87251;-48
2023/12/06 10:04:34;;;;;;;;;;;3.20;85.40;;;;;;4995799;28;87346;-47
2023/12/06 10:07:00;;;;;;;;;;;3.30;85.80;;;;;;5002790;28;87906;-47
2023/12/06 10:09:26;;;;;;;;;;;3.20;85.40;;;;;;4995186;28;87942;-46
2023/12/06 10:11:51;;;;;;;;;;;3.20;85.60;;;;;;5001108;28;87441;-47
2023/12/06 10:14:20;;;;;;;;;;;3.20;85.70;;;;;;4997826;28;87673;-47
2023/12/06 10:16:46;;;;;;;;;;;3.20;85.50;;;;;;5006040;28;88425;-47
2023/12/06 10:19:19;;;;;;;;;;;3.20;85.70;;;;;;5001778;28;87021;-46
2023/12/06 10:21:46;;;;;;;;;;;3.20;85.60;;;;;;5001571;28;87103;-46
2023/12/06 10:24:12;;;;;;;;;;;3.20;86.10;;;;;;4998471;28;86712;-48
2023/12/06 10:26:38;;;;;;;;;;;3.20;85.60;;;;;;5000893;28;87033;-47
2023/12/06 10:29:04;;;;;;;;;;;3.20;85.70;;;;;;4998025;28;88252;-46
2023/12/06 10:31:36;;;;;;;;;;;3.20;85.80;;;;;;4993662;28;88091;-46
2023/12/06 10:34:02;;;;;;;;;;;3.20;85.70;;;;;;5001440;28;87721;-48
2023/12/06 10:36:27;;;;;;;;;;;3.20;85.60;;;;;;5000777;28;87485;-48
2023/12/06 10:38:54;;;;;;;;;;;3.20;85.60;;;;;;5001201;28;87606;-46
2023/12/06 10:41:20;;;;;;;;;;;3.20;85.80;;;;;;4999997;28;88171;-46
2023/12/06 10:43:46;;;;;;;;;;;3.20;85.70;;;;;;4994459;28;87854;-47
2023/12/06 10:46:11;;;;;;;;;;;3.20;85.80;;;;;;5004405;28;87093;-47
2023/12/06 10:48:38;;;;;;;;;;;3.20;85.90;;;;;;4996285;28;86865;-47
2023/12/06 10:51:05;;;;;;;;;;;3.20;86.10;;;;;;5003575;28;88332;-47
2023/12/06 10:53:30;;;;;;;;;;;3.20;85.70;;;;;;4999899;28;86894;-46
2023/12/06 10:55:57;;;;;;;;;;;3.20;86.00;;;;;;4995248;28;89012;-46
2023/12/06 10:58:23;;;;;;;;;;;3.20;85.80;;;;;;4994601;28;87325;-46
2023/12/06 11:00:49;;;;;;;;;;;3.20;86.00;;;;;;4996572;28;87671;-47
2023/12/06 11:03:15;;;;;;;;;;;3.30;85.80;;;;;;5000227;28;87399;-47
2023/12/06 11:05:43;;;;;;;;;;;3.20;85.80;;;;;;4994142;28;87137;-47
2023/12/06 11:08:20;;;;;;;;;;;3.20;85.90;;;;;;5002212;28;88013;-47
2023/12/06 11:10:55;;;;;;;;;;;3.20;85.70;;;;;;5004060;28;87963;-47
2023/12/06 11:13:36;;;;;;;;;;;3.20;86.10;;;;;;5004872;28;86270;-46
2023/12/06 11:16:16;;;;;;;;;;;3.20;85.60;;;;;;4996900;28;88156;-48
2023/12/06 11:18:46;;;;;;;;;;;3.20;86.10;;;;;;4996241;28;88340;-47
2023/12/06 11:21:13;;;;;;;;;;;3.20;86.10;;;;;;5001523;28;89404;-48
2023/12/06 11:23:38;;;;;;;;;;;3.20;85.90;;;;;;4998610;28;88426;-51
2023/12/06 11:26:04;;;;;;;;;;;3.20;86.10;;;;;;4997396;28;87052;-46
2023/12/06 11:28:36;;;;;;;;;;;3.20;86.20;;;;;;4999220;28;86941;-48
2023/12/06 11:31:02;;;;;;;;;;;3.30;86.40;;;;;;4997526;28;87527;-46
2023/12/06 11:33:28;;;;;;;;;;;3.20;86.10;;;;;;5004993;28;87002;-47
2023/12/06 11:35:54;;;;;;;;;;;3.20;86.20;;;;;;4997041;28;88005;-46
2023/12/06 11:38:20;;;;;;;;;;;3.30;86.10;;;;;;4991687;28;86236;-47
2023/12/06 11:40:50;;;;;;;;;;;3.20;86.00;;;;;;4999635;28;87019;-46
2023/12/06 11:43:16;;;;;;;;;;;3.30;86.10;;;;;;5000165;28;88637;-48
2023/12/06 11:45:42;;;;;;;;;;;3.30;86.20;;;;;;4996918;28;88063;-47
2023/12/06 11:48:12;;;;;;;;;;;3.20;86.30;;;;;;4999530;28;87729;-47
2023/12/06 11:50:43;;;;;;;;;;;3.20;86.10;;;;;;5001852;28;87503;-46
2023/12/06 11:53:10;;;;;;;;;;;3.20;86.30;;;;;;4997309;28;87328;-46
2023/12/06 11:55:36;;;;;;;;;;;3.20;86.40;;;;;;5003291;28;87108;-47
2023/12/06 11:58:09;;;;;;;;;;;3.20;86.40;;;;;;4991593;28;87059;-47
2023/12/06 12:00:37;;;;;;;;;;;3.20;86.20;;;;;;5001000;28;87913;-46
2023/12/06 12:03:03;;;;;;;;;;;3.20;86.20;;;;;;4997091;28;86741;-49
2023/12/06 12:05:28;;;;;;;;;;;3.20;86.20;;;;;;4998414;28;87374;-46
2023/12/06 12:07:54;;;;;;;;;;;3.20;86.30;;;;;;4999320;28;88428;-47
2023/12/06 12:10:20;;;;;;;;;;;3.20;86.40;;;;;;4999712;28;88538;-47
2023/12/06 12:12:48;;;;;;;;;;;3.20;86.10;;;;;;4992039;28;87032;-46
2023/12/06 12:15:14;;;;;;;;;;;3.30;86.50;;;;;;4996486;28;88627;-47
2023/12/06 12:17:40;;;;;;;;;;;3.30;86.10;;;;;;5001960;28;88687;-46
2023/12/06 12:20:06;;;;;;;;;;;3.30;86.40;;;;;;5002587;28;87518;-46
2023/12/06 12:22:42;;;;;;;;;;;3.20;86.30;;;;;;4998166;28;88757;-48
2023/12/06 12:25:07;;;;;;;;;;;3.20;86.40;;;;;;4995336;28;87671;-46
2023/12/06 12:27:33;;;;;;;;;;;3.20;86.40;;;;;;4996485;28;87839;-46
2023/12/06 12:29:58;;;;;;;;;;;3.30;86.60;;;;;;4998572;28;87314;-47
2023/12/06 12:32:26;;;;;;;;;;;3.30;86.60;;;;;;4993184;28;87038;-47
2023/12/06 12:34:52;;;;;;;;;;;3.30;86.50;;;;;;4994922;28;88047;-49
2023/12/06 12:37:18;;;;;;;;;;;3.30;86.60;;;;;;5000484;28;87346;-47
2023/12/06 12:39:43;;;;;;;;;;;3.30;86.40;;;;;;4999271;28;87128;-47
2023/12/06 12:42:09;;;;;;;;;;;3.30;86.30;;;;;;4991093;28;87420;-47
2023/12/06 12:44:35;;;;;;;;;;;3.30;86.30;;;;;;4998656;28;86990;-48
2023/12/06 12:47:00;;;;;;;;;;;3.30;86.50;;;;;;4997061;28;87557;-51
2023/12/06 12:49:26;;;;;;;;;;;3.30;86.60;;;;;;4998471;28;87008;-47
2023/12/06 12:51:52;;;;;;;;;;;3.30;86.50;;;;;;4999674;28;86183;-46
2023/12/06 12:54:17;;;;;;;;;;;3.30;86.40;;;;;;4996676;28;86892;-49
2023/12/06 12:56:43;;;;;;;;;;;3.30;86.60;;;;;;4999658;28;87934;-47
2023/12/06 12:59:09;;;;;;;;;;;3.30;86.50;;;;;;4996096;28;87967;-48
2023/12/06 13:01:34;;;;;;;;;;;3.30;86.50;;;;;;4996027;28;87731;-46
2023/12/06 13:04:01;;;;;;;;;;;3.30;86.20;;;;;;4996235;28;87589;-47
2023/12/06 13:06:28;;;;;;;;;;;3.30;86.60;;;;;;5001732;28;87871;-47
2023/12/06 13:08:54;;;;;;;;;;;3.30;86.60;;;;;;4995440;28;87710;-47
2023/12/06 13:11:20;;;;;;;;;;;3.30;86.70;;;;;;4993123;28;87018;-48
2023/12/06 13:13:45;;;;;;;;;;;3.30;86.70;;;;;;4995652;28;87739;-47
2023/12/06 13:16:11;;;;;;;;;;;3.30;86.60;;;;;;5002524;28;86819;-46
2023/12/06 13:18:38;;;;;;;;;;;3.30;86.80;;;;;;4993963;28;87010;-47
2023/12/06 13:21:04;;;;;;;;;;;3.30;86.60;;;;;;4994406;28;88567;-46
2023/12/06 13:23:29;;;;;;;;;;;3.30;86.80;;;;;;5004434;28;88513;-46
2023/12/06 13:25:55;;;;;;;;;;;3.40;86.60;;;;;;4997138;28;88952;-51
2023/12/06 13:28:20;;;;;;;;;;;3.40;86.60;;;;;;4998245;28;88519;-46
2023/12/06 13:30:46;;;;;;;;;;;3.50;86.70;;;;;;4995159;28;87142;-47
2023/12/06 13:33:12;;;;;;;;;;;3.50;86.50;;;;;;4997468;28;87843;-46
2023/12/06 13:35:37;;;;;;;;;;;3.40;86.40;;;;;;4995996;28;87422;-47
2023/12/06 13:38:03;;;;;;;;;;;3.40;86.30;;;;;;4997265;28;87170;-46
2023/12/06 13:40:29;;;;;;;;;;;3.40;86.80;;;;;;4996744;28;86796;-48
2023/12/06 13:42:54;;;;;;;;;;;3.40;86.40;;;;;;5000205;28;88474;-47
2023/12/06 13:45:20;;;;;;;;;;;3.40;86.50;;;;;;4994146;28;87586;-48
2023/12/06 13:47:45;;;;;;;;;;;3.40;86.50;;;;;;4994405;28;88379;-46
2023/12/06 13:50:11;;;;;;;;;;;3.50;87.00;;;;;;4996948;28;87147;-46
2023/12/06 13:52:36;;;;;;;;;;;3.50;86.50;;;;;;4994102;28;87702;-46
2023/12/06 13:55:04;;;;;;;;;;;3.50;86.90;;;;;;4996010;28;87423;-48
2023/12/06 13:57:30;;;;;;;;;;;3.40;86.60;;;;;;4997842;28;87517;-47
2023/12/06 13:59:55;;;;;;;;;;;3.50;86.70;;;;;;4998977;28;87848;-47
2023/12/06 14:02:22;;;;;;;;;;;3.50;86.70;;;;;;4994696;28;92539;-47
2023/12/06 14:04:49;;;;;;;;;;;3.50;86.60;;;;;;4996831;28;91463;-47
2023/12/06 14:07:15;;;;;;;;;;;3.50;86.80;;;;;;4988765;28;93671;-47
2023/12/06 14:09:40;;;;;;;;;;;3.50;86.50;;;;;;4992105;28;92064;-46
2023/12/06 14:12:06;;;;;;;;;;;3.50;87.10;;;;;;4994082;28;92970;-45
2023/12/06 14:14:32;;;;;;;;;;;3.50;86.70;;;;;;4989418;28;93237;-47
2023/12/06 14:16:57;;;;;;;;;;;3.50;86.80;;;;;;4995278;28;92110;-47
2023/12/06 14:19:25;;;;;;;;;;;3.50;86.70;;;;;;4994096;28;93785;-47
2023/12/06 14:21:51;;;;;;;;;;;3.50;86.80;;;;;;4989754;28;92446;-48
2023/12/06 14:24:17;;;;;;;;;;;3.60;86.80;;;;;;4996327;28;92014;-46